Time;durP1;ratioP1;P1;durP2;ratioP2;P2;SDS_P1;SDS_P2;PMS_P1;PMS_P2;Temp;Humidity;BMP_temperature;BMP_pressure;BME280_temperature;BME280_humidity;BME280_pressure;Samples;Min_cycle;Max_cycle;Signal;HPM_P1;HPM_P2
2022/03/29 00:02:03;;;;;;;26.02;13.05;;;12.80;62.90;;;;;;5135680;28;20020;-69
2022/03/29 00:04:29;;;;;;;30.15;12.48;;;12.80;62.10;;;;;;5135600;28;20016;-69
2022/03/29 00:06:55;;;;;;;23.30;11.73;;;12.70;62.40;;;;;;5135663;28;20023;-69
2022/03/29 00:09:21;;;;;;;29.25;13.02;;;12.80;62.60;;;;;;5135462;28;20031;-69
2022/03/29 00:11:47;;;;;;;26.75;13.77;;;12.70;62.70;;;;;;5135504;28;20066;-69
2022/03/29 00:14:12;;;;;;;28.92;12.27;;;12.60;62.90;;;;;;5135411;27;20024;-69
2022/03/29 00:16:38;;;;;;;29.23;13.52;;;12.40;63.60;;;;;;5135352;28;20042;-69
2022/03/29 00:19:04;;;;;;;31.30;13.98;;;12.40;63.80;;;;;;5134340;28;20028;-69
2022/03/29 00:21:30;;;;;;;28.00;12.70;;;12.40;63.80;;;;;;5135293;28;20483;-69
2022/03/29 00:23:56;;;;;;;27.67;13.57;;;12.40;63.90;;;;;;5135249;28;20031;-69
2022/03/29 00:26:22;;;;;;;27.83;13.18;;;12.40;63.90;;;;;;5135011;28;20062;-69
2022/03/29 00:28:48;;;;;;;25.92;13.13;;;12.40;64.00;;;;;;5135034;28;20032;-69
2022/03/29 00:31:14;;;;;;;28.38;14.13;;;12.40;64.00;;;;;;5135060;28;20019;-69
2022/03/29 00:33:40;;;;;;;28.83;15.18;;;12.40;63.90;;;;;;5135025;28;20032;-69
2022/03/29 00:36:06;;;;;;;26.52;14.20;;;12.40;64.00;;;;;;5134387;28;20034;-69
2022/03/29 00:38:31;;;;;;;29.67;14.18;;;12.30;64.20;;;;;;5134822;28;20031;-69
2022/03/29 00:40:59;;;;;;;27.88;14.45;;;12.20;64.40;;;;;;5134880;28;20024;-69
2022/03/29 00:43:25;;;;;;;29.65;14.35;;;12.20;64.50;;;;;;5133874;28;20023;-69
2022/03/29 00:45:51;;;;;;;31.08;15.75;;;12.20;64.50;;;;;;5134814;28;20020;-69
2022/03/29 00:48:17;;;;;;;29.92;15.05;;;12.10;64.70;;;;;;5134755;28;20027;-69
2022/03/29 00:50:44;;;;;;;31.13;14.73;;;12.20;64.50;;;;;;5134683;28;20084;-69
2022/03/29 00:53:10;;;;;;;31.58;15.80;;;12.30;64.30;;;;;;5134682;28;20049;-69
2022/03/29 00:55:37;;;;;;;30.95;16.23;;;12.30;64.10;;;;;;5134584;28;20032;-69
2022/03/29 00:58:06;;;;;;;33.35;15.65;;;12.30;64.00;;;;;;5134519;28;20091;-69
2022/03/29 01:00:33;;;;;;;32.88;16.55;;;12.20;64.40;;;;;;5134654;28;20432;-69
2022/03/29 01:03:03;;;;;;;31.85;16.70;;;12.10;64.50;;;;;;5134505;28;20021;-69
2022/03/29 01:05:32;;;;;;;33.25;16.45;;;12.10;64.60;;;;;;5134452;28;20020;-69
2022/03/29 01:07:58;;;;;;;31.02;16.63;;;12.20;64.60;;;;;;5134411;28;20042;-69
2022/03/29 01:10:25;;;;;;;29.33;15.73;;;12.10;64.50;;;;;;5134353;28;20043;-69
2022/03/29 01:12:55;;;;;;;30.75;16.50;;;12.10;64.90;;;;;;5134404;28;20043;-69
2022/03/29 01:15:23;;;;;;;38.05;17.20;;;12.00;65.10;;;;;;5134444;28;20083;-69
2022/03/29 01:17:50;;;;;;;31.65;15.80;;;12.00;65.00;;;;;;5134116;28;20038;-69
2022/03/29 01:20:21;;;;;;;35.15;15.90;;;12.00;65.10;;;;;;5134209;28;20031;-69
2022/03/29 01:22:49;;;;;;;31.60;16.67;;;12.00;65.30;;;;;;5134141;28;20015;-69
2022/03/29 01:25:17;;;;;;;36.78;17.88;;;11.80;65.70;;;;;;5133920;28;20042;-69
2022/03/29 01:27:48;;;;;;;32.47;16.15;;;11.70;66.10;;;;;;5134059;28;20053;-69
2022/03/29 01:30:14;;;;;;;35.75;16.90;;;11.50;66.60;;;;;;5134052;28;20020;-69
2022/03/29 01:32:52;;;;;;;35.28;17.15;;;11.40;66.90;;;;;;5133854;28;20024;-69
2022/03/29 01:35:21;;;;;;;35.40;16.77;;;11.50;66.90;;;;;;5134046;28;20019;-69
2022/03/29 01:37:48;;;;;;;32.72;17.65;;;11.50;67.00;;;;;;5133985;28;20038;-69
2022/03/29 01:40:17;;;;;;;36.63;17.55;;;11.40;67.20;;;;;;5133927;28;20016;-69
2022/03/29 01:42:58;;;;;;;36.42;18.48;;;11.40;67.30;;;;;;5134020;28;20055;-69
2022/03/29 01:45:27;;;;;;;34.28;17.05;;;11.30;68.00;;;;;;5133974;28;20048;-69
2022/03/29 01:47:53;;;;;;;33.30;16.92;;;11.10;68.40;;;;;;5132887;28;20020;-69
2022/03/29 01:50:19;;;;;;;43.85;18.77;;;11.10;68.60;;;;;;5133613;28;20084;-69
2022/03/29 01:52:46;;;;;;;38.60;18.27;;;11.10;68.70;;;;;;5133824;28;20449;-69
2022/03/29 01:55:13;;;;;;;34.90;17.33;;;11.20;68.30;;;;;;5133755;28;20020;-69
2022/03/29 01:57:39;;;;;;;37.25;18.83;;;11.40;67.80;;;;;;5133656;28;20024;-69
2022/03/29 02:02:55;;;;;;;36.92;18.65;;;11.20;68.50;;;;;;5133822;28;20047;-69
2022/03/29 02:05:21;;;;;;;39.95;17.73;;;11.20;69.20;;;;;;5133645;28;20012;-69
2022/03/29 02:07:47;;;;;;;34.92;18.77;;;11.30;67.90;;;;;;5133623;28;20023;-69
2022/03/29 02:10:21;;;;;;;38.78;18.45;;;11.30;67.50;;;;;;5133599;28;20036;-69
2022/03/29 02:12:48;;;;;;;34.15;17.73;;;11.50;67.20;;;;;;5133640;28;20020;-69
2022/03/29 02:15:14;;;;;;;38.58;20.23;;;11.50;66.90;;;;;;5133607;28;20023;-69
2022/03/29 02:17:41;;;;;;;36.35;18.52;;;11.40;67.20;;;;;;5132584;28;20077;-69
2022/03/29 02:20:07;;;;;;;39.05;19.38;;;11.40;67.20;;;;;;5133534;28;20024;-69
2022/03/29 02:22:34;;;;;;;35.85;18.58;;;11.30;67.20;;;;;;5133605;28;20035;-69
2022/03/29 02:24:59;;;;;;;36.30;18.48;;;11.30;67.20;;;;;;5133299;28;20048;-69
2022/03/29 02:27:25;;;;;;;36.03;18.92;;;11.30;67.10;;;;;;5133402;28;20027;-69
2022/03/29 02:29:51;;;;;;;37.15;19.10;;;11.30;67.10;;;;;;5133434;28;20032;-69
2022/03/29 02:32:16;;;;;;;39.90;19.55;;;11.30;67.20;;;;;;5132421;28;20059;-69
2022/03/29 02:34:42;;;;;;;39.35;18.73;;;11.30;67.20;;;;;;5133357;28;20083;-69
2022/03/29 02:37:08;;;;;;;36.53;19.15;;;11.30;67.00;;;;;;5133410;28;20024;-69
2022/03/29 02:39:33;;;;;;;39.67;19.38;;;11.40;66.80;;;;;;5133295;28;20056;-69
2022/03/29 02:41:59;;;;;;;36.75;18.77;;;11.40;66.80;;;;;;5133308;28;20035;-69
2022/03/29 02:44:25;;;;;;;37.78;19.13;;;11.20;67.00;;;;;;5133343;28;20031;-69
2022/03/29 02:46:50;;;;;;;38.22;18.35;;;11.20;67.20;;;;;;5133288;28;20035;-69
2022/03/29 02:49:16;;;;;;;37.78;18.90;;;11.10;67.30;;;;;;5133211;28;20031;-69
2022/03/29 02:51:42;;;;;;;38.22;20.35;;;11.00;67.50;;;;;;5133275;28;20024;-69
2022/03/29 02:54:08;;;;;;;38.97;19.02;;;11.00;67.50;;;;;;5132979;28;20036;-69
2022/03/29 02:56:34;;;;;;;36.17;19.13;;;11.00;67.80;;;;;;5133210;28;20053;-69
2022/03/29 02:59:00;;;;;;;41.65;19.90;;;10.90;67.80;;;;;;5134442;28;20031;-69
2022/03/29 03:01:29;;;;;;;38.38;19.23;;;10.90;67.90;;;;;;5136921;28;20019;-69
2022/03/29 03:03:56;;;;;;;36.88;18.80;;;10.90;67.90;;;;;;5136867;28;20030;-69
2022/03/29 03:06:22;;;;;;;40.47;19.38;;;10.90;67.70;;;;;;5136771;28;20043;-69
2022/03/29 03:08:48;;;;;;;38.75;19.33;;;10.90;67.70;;;;;;5136826;28;20031;-69
2022/03/29 03:11:13;;;;;;;43.70;20.92;;;10.80;67.90;;;;;;5136667;28;20032;-69
2022/03/29 03:13:39;;;;;;;40.22;20.00;;;10.80;68.50;;;;;;5136712;28;20050;-69
2022/03/29 03:16:05;;;;;;;40.72;19.40;;;10.80;68.60;;;;;;5135665;28;20048;-69
2022/03/29 03:18:30;;;;;;;44.95;20.67;;;10.80;68.90;;;;;;5136541;28;20028;-69
2022/03/29 03:20:56;;;;;;;47.08;21.77;;;10.80;69.30;;;;;;5136457;28;20028;-69
2022/03/29 03:23:22;;;;;;;40.63;19.45;;;10.70;68.90;;;;;;5136445;28;20054;-69
2022/03/29 03:25:50;;;;;;;39.95;20.20;;;10.70;69.30;;;;;;5136202;28;20048;-69
2022/03/29 03:28:17;;;;;;;42.85;20.95;;;10.70;69.80;;;;;;5136291;28;20027;-69
2022/03/29 03:30:42;;;;;;;45.03;20.83;;;10.50;70.20;;;;;;5136321;28;20023;-69
2022/03/29 03:33:08;;;;;;;46.65;20.40;;;10.40;70.70;;;;;;5136266;28;20103;-69
2022/03/29 03:35:35;;;;;;;41.92;20.00;;;10.40;70.80;;;;;;5136208;28;20035;-69
2022/03/29 03:38:00;;;;;;;41.97;20.00;;;10.50;70.70;;;;;;5136075;28;20031;-69
2022/03/29 03:40:26;;;;;;;46.13;20.65;;;10.50;70.50;;;;;;5135066;28;20028;-69
2022/03/29 03:42:52;;;;;;;46.97;21.35;;;10.50;70.30;;;;;;5136084;28;20028;-69
2022/03/29 03:45:17;;;;;;;46.42;21.45;;;10.60;70.30;;;;;;5135987;28;20028;-69
2022/03/29 03:47:43;;;;;;;44.35;20.73;;;10.60;70.40;;;;;;5135979;28;20049;-69
2022/03/29 03:50:09;;;;;;;46.00;21.25;;;10.50;70.40;;;;;;5135912;28;20035;-69
2022/03/29 03:52:35;;;;;;;47.25;21.08;;;10.50;70.80;;;;;;5135935;28;20020;-69
2022/03/29 03:55:01;;;;;;;47.00;20.95;;;10.50;70.80;;;;;;5135825;28;20027;-69
2022/03/29 03:57:27;;;;;;;47.90;21.65;;;10.50;71.30;;;;;;5135778;28;20031;-69
2022/03/29 03:59:55;;;;;;;44.25;20.05;;;10.40;71.20;;;;;;5134640;28;20035;-69
2022/03/29 04:02:21;;;;;;;50.88;21.65;;;10.40;71.20;;;;;;5135720;28;20020;-69
2022/03/29 04:04:47;;;;;;;43.40;20.02;;;10.40;71.30;;;;;;5135653;28;20129;-69
2022/03/29 04:07:13;;;;;;;43.38;19.90;;;10.40;71.30;;;;;;5135568;28;20031;-69
2022/03/29 04:09:39;;;;;;;46.70;19.65;;;10.50;71.30;;;;;;5135180;28;20095;-69
2022/03/29 04:12:06;;;;;;;44.75;20.55;;;10.50;71.20;;;;;;5134963;28;20026;-69
2022/03/29 04:14:32;;;;;;;50.05;20.20;;;10.40;71.30;;;;;;5135391;28;20028;-69
2022/03/29 04:16:57;;;;;;;45.03;21.63;;;10.50;71.40;;;;;;5135536;28;20039;-69
2022/03/29 04:19:23;;;;;;;43.72;20.77;;;10.50;71.40;;;;;;5135238;28;20040;-68
2022/03/29 04:21:48;;;;;;;44.97;19.98;;;10.50;71.40;;;;;;5135253;28;20019;-69
2022/03/29 04:24:14;;;;;;;49.35;21.95;;;10.40;71.90;;;;;;5135251;28;20020;-69
2022/03/29 04:26:40;;;;;;;44.58;20.38;;;10.30;72.40;;;;;;5135079;28;20059;-69
2022/03/29 04:29:06;;;;;;;44.33;19.52;;;10.20;72.80;;;;;;5135087;28;20023;-69
2022/03/29 04:31:32;;;;;;;42.80;19.70;;;10.10;73.50;;;;;;5135065;28;20066;-69
2022/03/29 04:34:01;;;;;;;49.10;20.60;;;10.10;72.90;;;;;;5135089;28;20087;-69
2022/03/29 04:36:28;;;;;;;44.70;20.15;;;10.10;73.10;;;;;;5135208;28;20070;-69
2022/03/29 04:38:57;;;;;;;46.35;20.60;;;10.10;73.30;;;;;;5134854;28;20361;-69
2022/03/29 04:41:23;;;;;;;45.15;19.67;;;10.00;74.80;;;;;;5135005;28;20015;-69
2022/03/29 04:43:49;;;;;;;47.78;22.13;;;10.00;73.60;;;;;;5134844;28;20035;-69
2022/03/29 04:46:14;;;;;;;46.83;20.40;;;10.00;73.50;;;;;;5134757;28;20023;-69
2022/03/29 04:48:40;;;;;;;44.05;20.13;;;10.00;73.60;;;;;;5134749;28;20066;-69
2022/03/29 04:51:06;;;;;;;46.97;22.33;;;10.10;73.60;;;;;;5134689;28;20083;-69
2022/03/29 04:53:32;;;;;;;45.33;20.67;;;10.10;73.80;;;;;;5134663;28;20020;-69
2022/03/29 04:55:58;;;;;;;44.38;20.65;;;10.10;73.60;;;;;;5134603;28;20046;-69
2022/03/29 04:58:25;;;;;;;45.97;20.42;;;10.10;73.40;;;;;;5134469;28;20027;-69
2022/03/29 05:00:51;;;;;;;51.25;21.05;;;10.20;73.20;;;;;;5134534;28;20011;-69
2022/03/29 05:03:16;;;;;;;46.80;20.38;;;10.20;73.20;;;;;;5134399;28;20034;-69
2022/03/29 05:05:42;;;;;;;46.83;20.40;;;10.20;73.10;;;;;;5134449;28;20034;-69
2022/03/29 05:08:08;;;;;;;45.70;20.67;;;10.20;73.20;;;;;;5133497;28;20032;-69
2022/03/29 05:10:34;;;;;;;46.72;20.65;;;10.10;73.50;;;;;;5134321;28;20028;-69
2022/03/29 05:12:59;;;;;;;47.65;21.00;;;10.10;73.50;;;;;;5134273;28;20028;-69
2022/03/29 05:15:25;;;;;;;51.97;20.92;;;10.10;73.60;;;;;;5134258;28;20028;-69
2022/03/29 05:17:51;;;;;;;46.13;20.10;;;10.10;73.40;;;;;;5134091;28;20035;-69
2022/03/29 05:20:17;;;;;;;45.42;20.20;;;10.20;73.70;;;;;;5134237;28;20015;-69
2022/03/29 05:22:43;;;;;;;46.42;20.25;;;10.10;73.70;;;;;;5133935;28;20468;-69
2022/03/29 05:25:08;;;;;;;44.75;19.50;;;10.10;73.90;;;;;;5133830;28;20070;-69
2022/03/29 05:27:34;;;;;;;47.67;20.50;;;10.10;73.70;;;;;;5134089;28;20028;-69
2022/03/29 05:30:00;;;;;;;45.40;20.23;;;10.10;73.70;;;;;;5134046;28;20032;-69
2022/03/29 05:32:25;;;;;;;46.92;20.48;;;10.10;74.00;;;;;;5133986;28;20039;-69
2022/03/29 05:34:51;;;;;;;46.15;19.35;;;10.00;74.10;;;;;;5133941;28;20031;-70
2022/03/29 05:37:16;;;;;;;48.58;21.00;;;10.00;74.50;;;;;;5133990;28;20028;-69
2022/03/29 05:39:43;;;;;;;50.50;20.92;;;9.90;74.80;;;;;;5133857;28;20036;-69
2022/03/29 05:42:10;;;;;;;49.72;21.73;;;9.80;75.00;;;;;;5133918;28;20020;-70
2022/03/29 05:44:37;;;;;;;50.72;20.30;;;9.80;75.20;;;;;;5133978;28;20061;-69
2022/03/29 05:49:47;;;;;;;46.65;19.75;;;9.80;75.40;;;;;;5134104;28;20053;-69
2022/03/29 05:52:13;;;;;;;48.70;20.45;;;9.80;75.60;;;;;;5133751;28;20063;-69
2022/03/29 05:54:41;;;;;;;45.35;18.70;;;9.80;75.50;;;;;;5133766;28;20027;-69
2022/03/29 05:57:07;;;;;;;45.85;19.60;;;9.80;75.50;;;;;;5133781;28;20019;-69
2022/03/29 05:59:32;;;;;;;39.58;18.55;;;9.80;75.60;;;;;;5133636;28;20092;-69
2022/03/29 06:02:04;;;;;;;46.05;19.63;;;9.70;75.80;;;;;;5133796;28;20039;-69
2022/03/29 06:04:36;;;;;;;43.08;18.05;;;9.70;75.60;;;;;;5133714;28;20024;-69
2022/03/29 06:07:07;;;;;;;47.50;19.60;;;9.70;76.10;;;;;;5133698;28;20028;-69
2022/03/29 06:09:34;;;;;;;42.38;17.88;;;9.60;76.40;;;;;;5133658;28;20020;-69
2022/03/29 06:12:00;;;;;;;40.97;17.52;;;9.60;76.40;;;;;;5133624;28;20047;-69
2022/03/29 06:14:27;;;;;;;41.80;18.75;;;9.70;76.40;;;;;;5133590;28;20028;-69
2022/03/29 06:16:52;;;;;;;44.15;19.65;;;9.70;76.10;;;;;;5133586;28;20031;-67
2022/03/29 06:19:19;;;;;;;45.20;18.95;;;9.60;76.80;;;;;;5133508;28;20071;-67
2022/03/29 06:21:44;;;;;;;43.90;18.48;;;9.60;76.70;;;;;;5133706;28;20089;-67
2022/03/29 06:24:11;;;;;;;44.95;18.15;;;9.60;77.00;;;;;;5133473;28;20052;-67
2022/03/29 06:26:39;;;;;;;43.00;17.90;;;9.60;77.80;;;;;;5133339;28;20077;-67
2022/03/29 06:29:08;;;;;;;40.17;18.15;;;9.60;77.00;;;;;;5133439;28;20083;-67
2022/03/29 06:31:34;;;;;;;45.60;19.42;;;9.70;77.10;;;;;;5133467;28;20054;-67
2022/03/29 06:34:00;;;;;;;45.88;20.08;;;9.70;76.90;;;;;;5134781;28;20024;-67
2022/03/29 06:36:26;;;;;;;46.65;19.02;;;9.80;76.80;;;;;;5137310;28;20031;-67
2022/03/29 06:38:52;;;;;;;51.28;19.63;;;9.80;76.60;;;;;;5137343;28;20154;-67
2022/03/29 06:41:19;;;;;;;42.85;18.55;;;9.80;76.60;;;;;;5137304;28;20028;-67
2022/03/29 06:43:45;;;;;;;41.45;17.73;;;9.80;76.40;;;;;;5137387;28;20034;-66
2022/03/29 06:46:11;;;;;;;45.70;19.42;;;9.90;76.50;;;;;;5137213;28;20024;-66
2022/03/29 06:48:37;;;;;;;46.03;18.02;;;9.90;76.40;;;;;;5136103;28;20020;-66
2022/03/29 06:51:03;;;;;;;47.55;20.50;;;9.90;76.50;;;;;;5137085;28;20552;-66
2022/03/29 06:53:29;;;;;;;47.22;19.88;;;9.90;76.70;;;;;;5137077;28;20020;-66
2022/03/29 06:55:55;;;;;;;46.78;18.73;;;9.90;76.60;;;;;;5136947;28;20447;-66
2022/03/29 06:58:20;;;;;;;47.33;18.73;;;9.80;77.30;;;;;;5136813;28;20084;-66
2022/03/29 07:00:47;;;;;;;44.88;19.40;;;9.70;77.60;;;;;;5136913;28;20020;-66
2022/03/29 07:03:12;;;;;;;46.88;18.85;;;9.70;77.60;;;;;;5136848;28;20028;-66
2022/03/29 07:05:42;;;;;;;45.58;19.42;;;9.60;77.80;;;;;;5136771;28;20054;-66
2022/03/29 07:08:10;;;;;;;48.20;19.00;;;9.60;78.00;;;;;;5135736;28;20061;-66
2022/03/29 07:13:22;;;;;;;46.35;19.25;;;9.50;78.40;;;;;;5136822;28;20534;-66
2022/03/29 07:15:51;;;;;;;43.80;18.60;;;9.40;79.60;;;;;;5136716;28;20054;-66
2022/03/29 07:18:17;;;;;;;50.80;19.30;;;9.50;78.60;;;;;;5136489;28;20055;-66
2022/03/29 07:20:43;;;;;;;51.70;20.80;;;9.50;78.70;;;;;;5136484;28;20045;-66
2022/03/29 07:23:10;;;;;;;50.58;19.95;;;9.50;78.90;;;;;;5136433;28;20042;-66
2022/03/29 07:25:36;;;;;;;48.83;20.05;;;9.50;79.00;;;;;;5135265;28;20048;-66
2022/03/29 07:28:02;;;;;;;54.08;22.63;;;9.50;78.80;;;;;;5135277;28;20026;-66
2022/03/29 07:30:29;;;;;;;51.05;18.85;;;9.60;79.10;;;;;;5136328;27;20024;-66
2022/03/29 07:32:59;;;;;;;51.28;20.50;;;9.60;78.50;;;;;;5136354;27;20023;-66
2022/03/29 07:35:28;;;;;;;50.53;19.23;;;9.60;78.70;;;;;;5136372;28;20012;-66
2022/03/29 07:37:55;;;;;;;51.42;19.80;;;9.60;78.60;;;;;;5136132;28;20022;-66
2022/03/29 07:40:23;;;;;;;54.47;20.23;;;9.70;78.40;;;;;;5136151;28;20012;-66
2022/03/29 07:42:52;;;;;;;48.65;19.10;;;9.70;78.40;;;;;;5136069;28;20035;-66
2022/03/29 07:45:18;;;;;;;45.40;18.63;;;9.70;78.60;;;;;;5136131;28;20028;-66
2022/03/29 07:47:45;;;;;;;49.13;19.55;;;9.70;78.60;;;;;;5136023;28;20023;-66
2022/03/29 07:50:12;;;;;;;49.85;19.45;;;9.70;78.90;;;;;;5135941;28;20024;-66
2022/03/29 07:52:39;;;;;;;52.13;20.95;;;9.60;79.20;;;;;;5135879;28;20031;-66
2022/03/29 07:55:07;;;;;;;48.83;19.23;;;9.60;79.60;;;;;;5135758;27;20024;-67
2022/03/29 07:57:33;;;;;;;50.55;19.00;;;9.50;79.70;;;;;;5135770;28;20030;-67
2022/03/29 08:00:00;;;;;;;47.95;19.98;;;9.50;79.40;;;;;;5135632;28;20107;-67
2022/03/29 08:02:25;;;;;;;49.47;19.27;;;9.50;80.00;;;;;;5135725;28;20019;-66
2022/03/29 08:04:51;;;;;;;45.47;18.70;;;9.60;79.70;;;;;;5135638;28;20076;-67
2022/03/29 08:07:17;;;;;;;50.45;19.10;;;9.60;79.70;;;;;;5135619;28;20028;-66
2022/03/29 08:09:42;;;;;;;47.63;19.42;;;9.60;79.40;;;;;;5135511;28;20051;-67
2022/03/29 08:12:08;;;;;;;48.42;19.48;;;9.70;79.40;;;;;;5135529;28;20091;-67
2022/03/29 08:14:34;;;;;;;47.25;19.70;;;9.70;79.90;;;;;;5135497;28;20028;-67
2022/03/29 08:17:00;;;;;;;45.38;18.35;;;9.70;79.20;;;;;;5135395;28;20387;-67
2022/03/29 08:19:26;;;;;;;46.22;18.00;;;9.70;79.00;;;;;;5135443;27;20030;-67
2022/03/29 08:21:52;;;;;;;48.17;19.05;;;9.80;78.90;;;;;;5135302;28;20024;-67
2022/03/29 08:24:21;;;;;;;43.95;18.48;;;9.80;78.80;;;;;;5135275;28;20047;-67
2022/03/29 08:26:48;;;;;;;52.30;19.83;;;9.80;78.80;;;;;;5135037;28;20061;-67
2022/03/29 08:29:15;;;;;;;44.80;18.05;;;9.70;79.10;;;;;;5135132;28;20023;-68
2022/03/29 08:31:41;;;;;;;44.22;17.77;;;9.70;79.10;;;;;;5135081;28;20110;-67
2022/03/29 08:34:07;;;;;;;41.72;18.02;;;9.70;79.20;;;;;;5135050;28;20026;-67
2022/03/29 08:36:33;;;;;;;48.88;18.38;;;9.70;79.50;;;;;;5135018;28;20023;-67
2022/03/29 08:38:59;;;;;;;48.95;19.35;;;9.70;79.40;;;;;;5134906;28;20040;-67
2022/03/29 08:41:30;;;;;;;43.50;18.95;;;9.70;80.10;;;;;;5135063;28;20091;-67
2022/03/29 08:44:00;;;;;;;40.03;16.23;;;9.70;80.00;;;;;;5134931;28;20015;-67
2022/03/29 08:46:32;;;;;;;41.92;17.83;;;9.70;80.20;;;;;;5134873;28;20024;-67
2022/03/29 08:48:58;;;;;;;43.50;17.65;;;9.70;80.00;;;;;;5134884;27;20023;-67
2022/03/29 08:51:24;;;;;;;43.55;18.73;;;9.70;79.80;;;;;;5134721;28;20024;-67
2022/03/29 08:53:49;;;;;;;44.72;19.42;;;9.70;80.10;;;;;;5134673;28;20020;-66
2022/03/29 08:56:15;;;;;;;45.33;18.65;;;9.70;79.90;;;;;;5134200;28;20139;-67
2022/03/29 08:58:41;;;;;;;40.78;17.42;;;9.70;80.10;;;;;;5134491;28;20027;-68
2022/03/29 09:01:07;;;;;;;42.40;17.70;;;9.80;79.70;;;;;;5134580;28;20023;-67
2022/03/29 09:03:32;;;;;;;45.33;18.73;;;9.80;79.70;;;;;;5134458;28;20023;-67
2022/03/29 09:06:09;;;;;;;44.97;18.05;;;9.80;79.70;;;;;;5134442;28;20035;-67
2022/03/29 09:08:46;;;;;;;46.25;19.15;;;9.90;79.60;;;;;;5134507;28;20024;-67
2022/03/29 09:11:12;;;;;;;47.58;18.83;;;9.90;79.60;;;;;;5134338;28;20027;-67
2022/03/29 09:13:39;;;;;;;47.13;18.73;;;9.80;79.90;;;;;;5134278;28;20042;-68
2022/03/29 09:16:09;;;;;;;46.50;19.30;;;9.80;80.00;;;;;;5134327;28;20047;-68
2022/03/29 09:18:35;;;;;;;45.50;18.67;;;9.80;80.00;;;;;;5134389;27;20050;-68
2022/03/29 09:21:13;;;;;;;44.95;18.45;;;9.70;80.10;;;;;;5134260;28;20024;-68
2022/03/29 09:23:40;;;;;;;45.35;18.77;;;9.70;80.00;;;;;;5134206;28;20062;-68
2022/03/29 09:26:07;;;;;;;46.75;19.77;;;9.70;80.20;;;;;;5133935;28;20038;-67
2022/03/29 09:28:34;;;;;;;48.50;19.08;;;9.70;80.20;;;;;;5134016;28;20087;-66
2022/03/29 09:31:01;;;;;;;41.65;17.98;;;9.70;79.90;;;;;;5134050;28;20091;-67
2022/03/29 09:33:31;;;;;;;44.33;19.52;;;9.90;79.60;;;;;;5134023;28;20100;-67
2022/03/29 09:35:58;;;;;;;49.15;20.35;;;9.90;79.30;;;;;;5134018;28;20049;-67
2022/03/29 09:38:41;;;;;;;51.63;20.45;;;9.90;79.00;;;;;;5133997;28;20080;-67
2022/03/29 09:41:32;;;;;;;43.95;18.80;;;10.00;78.70;;;;;;5133990;28;20083;-67
2022/03/29 09:44:11;;;;;;;43.22;18.20;;;10.00;78.40;;;;;;5133047;28;20534;-67
2022/03/29 09:46:59;;;;;;;43.22;19.50;;;10.10;78.20;;;;;;5133978;28;20020;-67
2022/03/29 09:49:25;;;;;;;38.97;17.85;;;10.10;78.00;;;;;;5133848;28;20023;-67
2022/03/29 09:52:15;;;;;;;43.63;18.13;;;10.10;77.90;;;;;;5133871;28;20039;-67
2022/03/29 09:54:42;;;;;;;41.10;17.83;;;10.20;77.60;;;;;;5133819;28;20028;-67
2022/03/29 09:57:09;;;;;;;42.92;17.85;;;10.20;77.40;;;;;;5133752;28;20031;-67
2022/03/29 09:59:48;;;;;;;41.83;18.20;;;10.20;77.30;;;;;;5132715;28;20024;-67
2022/03/29 10:02:13;;;;;;;44.63;19.73;;;10.20;77.50;;;;;;5133759;28;20020;-66
2022/03/29 10:04:40;;;;;;;40.80;18.38;;;10.20;77.40;;;;;;5133689;28;20042;-66
2022/03/29 10:07:09;;;;;;;44.67;19.92;;;10.20;77.30;;;;;;5133637;28;20027;-66
2022/03/29 10:09:38;;;;;;;47.38;19.42;;;10.10;77.80;;;;;;5136358;28;20449;-66
2022/03/29 10:12:06;;;;;;;47.08;20.27;;;10.20;78.20;;;;;;5137068;28;20062;-66
2022/03/29 10:14:39;;;;;;;40.55;18.42;;;10.20;77.80;;;;;;5137823;28;20039;-66
2022/03/29 10:17:08;;;;;;;39.65;17.95;;;10.10;77.50;;;;;;5137870;27;20369;-66
2022/03/29 10:19:36;;;;;;;45.92;17.92;;;10.10;77.70;;;;;;5137654;28;20071;-66
2022/03/29 10:22:03;;;;;;;45.33;20.20;;;10.20;77.80;;;;;;5136638;28;20023;-66
2022/03/29 10:24:29;;;;;;;41.45;17.88;;;10.10;77.30;;;;;;5137609;28;20043;-66
2022/03/29 10:26:57;;;;;;;43.33;18.77;;;10.00;78.10;;;;;;5137439;28;20043;-66
2022/03/29 10:29:22;;;;;;;41.80;18.70;;;10.10;78.30;;;;;;5137450;28;20024;-66
2022/03/29 10:31:51;;;;;;;40.08;17.95;;;10.20;78.40;;;;;;5137460;28;20099;-66
2022/03/29 10:34:16;;;;;;;40.65;19.42;;;10.30;77.80;;;;;;5137455;28;20027;-66
2022/03/29 10:37:00;;;;;;;41.47;18.67;;;10.40;77.30;;;;;;5137377;28;20058;-66
2022/03/29 10:39:47;;;;;;;39.95;19.23;;;10.50;77.00;;;;;;5137255;28;20031;-66
2022/03/29 10:42:25;;;;;;;41.63;18.38;;;10.50;76.70;;;;;;5136182;28;20035;-66
2022/03/29 10:45:17;;;;;;;43.97;18.90;;;10.60;76.50;;;;;;5137232;28;20071;-66
2022/03/29 10:47:48;;;;;;;43.37;18.37;;;10.70;76.20;;;;;;5130309;27;20055;-66
2022/03/29 10:50:16;;;;;;;38.78;18.33;;;10.80;75.80;;;;;;5137127;28;20083;-66
2022/03/29 10:52:45;;;;;;;39.47;17.73;;;10.90;75.50;;;;;;5137113;27;20016;-66
2022/03/29 10:55:30;;;;;;;42.65;18.95;;;11.00;75.10;;;;;;5136984;28;20075;-66
2022/03/29 10:58:09;;;;;;;43.88;17.83;;;11.10;74.80;;;;;;5137093;28;20031;-66
2022/03/29 11:00:37;;;;;;;41.10;17.80;;;11.10;74.50;;;;;;5136848;28;20024;-66
2022/03/29 11:03:12;;;;;;;40.10;17.52;;;11.20;74.50;;;;;;5136866;28;20026;-66
2022/03/29 11:06:04;;;;;;;39.42;18.35;;;11.30;74.10;;;;;;5136854;28;20027;-66
2022/03/29 11:08:30;;;;;;;37.88;17.60;;;11.40;73.80;;;;;;5136936;28;20034;-66
2022/03/29 11:10:58;;;;;;;35.78;17.98;;;11.50;72.90;;;;;;5136755;28;20031;-66
2022/03/29 11:13:24;;;;;;;36.67;16.88;;;11.50;72.80;;;;;;5136645;28;20016;-66
2022/03/29 11:15:50;;;;;;;35.80;17.55;;;11.60;72.60;;;;;;5136696;28;20039;-66
2022/03/29 11:18:31;;;;;;;39.25;18.35;;;11.70;72.40;;;;;;5136498;28;20036;-67
2022/03/29 11:21:03;;;;;;;39.83;19.15;;;11.80;72.00;;;;;;5136073;28;20024;-67
2022/03/29 11:23:34;;;;;;;37.17;18.70;;;12.00;71.80;;;;;;5136650;28;20027;-67
2022/03/29 11:26:26;;;;;;;36.03;17.73;;;12.00;72.40;;;;;;5135637;28;20044;-67
2022/03/29 11:28:57;;;;;;;39.47;18.33;;;12.00;70.50;;;;;;5132462;28;20043;-67
2022/03/29 11:31:25;;;;;;;37.30;17.80;;;12.10;71.10;;;;;;5135362;28;20087;-67
2022/03/29 11:33:55;;;;;;;33.80;17.48;;;12.20;70.90;;;;;;5135117;28;20031;-67
2022/03/29 11:36:22;;;;;;;41.40;19.10;;;12.30;71.00;;;;;;5135149;28;20028;-66
2022/03/29 11:38:48;;;;;;;38.55;17.95;;;12.50;70.70;;;;;;5134970;28;20027;-66
2022/03/29 11:41:35;;;;;;;37.40;18.15;;;12.60;70.50;;;;;;5135103;28;20027;-66
2022/03/29 11:44:06;;;;;;;36.13;17.52;;;12.70;69.50;;;;;;5135082;28;20024;-66
2022/03/29 11:46:49;;;;;;;40.53;19.60;;;12.80;69.20;;;;;;5134924;28;20028;-66
2022/03/29 11:49:16;;;;;;;41.67;19.00;;;12.90;68.70;;;;;;5134960;28;20019;-66
2022/03/29 11:51:42;;;;;;;42.17;19.15;;;12.90;68.80;;;;;;5133857;28;20043;-66
2022/03/29 11:54:08;;;;;;;38.63;18.60;;;13.10;68.80;;;;;;5134793;28;20081;-66
2022/03/29 11:56:37;;;;;;;39.75;19.45;;;13.10;67.40;;;;;;5134899;28;20020;-66
2022/03/29 11:59:06;;;;;;;42.35;19.70;;;13.10;67.40;;;;;;5134701;28;20049;-66
2022/03/29 12:01:32;;;;;;;39.50;18.58;;;13.10;66.90;;;;;;5133737;28;20024;-66
2022/03/29 12:04:03;;;;;;;42.70;18.80;;;13.20;66.80;;;;;;5134786;28;20019;-66
2022/03/29 12:06:31;;;;;;;44.58;19.45;;;13.10;66.20;;;;;;5134647;28;20019;-66
2022/03/29 12:08:57;;;;;;;45.72;20.38;;;13.20;66.40;;;;;;5134587;28;20024;-66
2022/03/29 12:11:27;;;;;;;43.55;18.60;;;13.30;66.40;;;;;;5134454;28;20035;-66
2022/03/29 12:14:17;;;;;;;42.97;18.77;;;13.40;65.90;;;;;;5134590;28;20033;-66
2022/03/29 12:16:47;;;;;;;43.25;20.15;;;13.60;65.30;;;;;;5134503;28;20032;-66
2022/03/29 12:19:17;;;;;;;43.50;19.83;;;13.80;65.30;;;;;;5134530;28;20028;-66
2022/03/29 12:21:45;;;;;;;44.15;20.85;;;13.90;64.80;;;;;;5134496;28;20024;-66
2022/03/29 12:24:12;;;;;;;48.72;20.85;;;13.90;63.80;;;;;;5133208;28;20019;-66
2022/03/29 12:26:41;;;;;;;50.13;21.85;;;14.00;63.30;;;;;;5095025;28;1121852;-66
2022/03/29 12:29:10;;;;;;;46.92;21.10;;;14.00;63.40;;;;;;5135106;28;20028;-66
2022/03/29 12:31:37;;;;;;;49.88;19.52;;;14.00;63.60;;;;;;5134343;28;20026;-66
2022/03/29 12:34:04;;;;;;;49.88;21.33;;;14.10;63.10;;;;;;5135070;28;20050;-66
2022/03/29 12:36:30;;;;;;;46.78;19.92;;;14.10;63.20;;;;;;5134976;28;20042;-66
2022/03/29 12:39:01;;;;;;;51.70;21.98;;;14.20;62.90;;;;;;5133867;28;20032;-66
2022/03/29 12:41:32;;;;;;;50.22;20.63;;;14.40;62.20;;;;;;5135030;27;20079;-66
2022/03/29 12:43:58;;;;;;;49.70;21.95;;;14.50;61.90;;;;;;5134961;28;20023;-66